Time;durP1;ratioP1;P1;durP2;ratioP2;P2;SDS_P1;SDS_P2;PMS_P1;PMS_P2;Temp;Humidity;BMP_temperature;BMP_pressure;BME280_temperature;BME280_humidity;BME280_pressure;Samples;Min_cycle;Max_cycle;Signal;HPM_P1;HPM_P2
2021/12/22 00:00:59;;;;;;;16.00;8.05;;;;;;;-1.00;100.00;102725.81;5111669;28;20056;-34
2021/12/22 00:03:28;;;;;;;12.27;6.55;;;;;;;-1.01;100.00;102729.59;5114345;28;20039;-34
2021/12/22 00:05:56;;;;;;;12.60;6.75;;;;;;;-1.03;100.00;102723.44;5115190;28;20051;-34
2021/12/22 00:08:25;;;;;;;9.30;5.47;;;;;;;-1.05;100.00;102729.09;5114925;28;20044;-33
2021/12/22 00:10:53;;;;;;;10.05;6.35;;;;;;;-1.07;100.00;102722.06;5114601;28;20507;-36
2021/12/22 00:13:21;;;;;;;10.35;5.93;;;;;;;-1.09;100.00;102721.41;5108743;28;20554;-36
2021/12/22 00:15:49;;;;;;;10.50;6.13;;;;;;;-1.11;100.00;102724.31;5115076;28;20071;-39
2021/12/22 00:18:17;;;;;;;11.30;6.22;;;;;;;-1.13;100.00;102731.00;5114027;28;20035;-35
2021/12/22 00:20:46;;;;;;;9.05;5.38;;;;;;;-1.16;100.00;102732.19;5115140;28;20053;-35
2021/12/22 00:23:13;;;;;;;9.82;5.53;;;;;;;-1.16;100.00;102734.94;5114091;28;20472;-37
2021/12/22 00:25:41;;;;;;;12.25;6.63;;;;;;;-1.18;100.00;102733.41;5114690;28;20063;-34
2021/12/22 00:28:09;;;;;;;10.93;6.28;;;;;;;-1.19;100.00;102735.28;5114587;28;20036;-30
2021/12/22 00:30:39;;;;;;;12.95;7.40;;;;;;;-1.20;100.00;102730.84;5105397;28;20467;-33
2021/12/22 00:33:10;;;;;;;12.82;6.35;;;;;;;-1.22;100.00;102727.44;5114563;28;20126;-33
2021/12/22 00:35:41;;;;;;;9.80;6.60;;;;;;;-1.23;100.00;102724.88;5114624;28;20047;-30
2021/12/22 00:38:12;;;;;;;11.60;6.90;;;;;;;-1.26;100.00;102728.81;5113759;28;20409;-32
2021/12/22 00:40:41;;;;;;;14.30;7.57;;;;;;;-1.28;100.00;102719.06;5114350;28;20381;-32
2021/12/22 00:43:09;;;;;;;14.63;8.15;;;;;;;-1.31;100.00;102725.75;5114668;27;20055;-32
2021/12/22 00:45:37;;;;;;;11.80;7.35;;;;;;;-1.34;100.00;102717.88;5103162;28;20433;-33
2021/12/22 00:48:07;;;;;;;11.68;6.80;;;;;;;-1.35;100.00;102715.31;5114326;28;20511;-37
2021/12/22 00:50:37;;;;;;;16.02;7.88;;;;;;;-1.38;100.00;102711.03;5114200;28;20047;-36
2021/12/22 00:53:05;;;;;;;13.70;8.13;;;;;;;-1.41;100.00;102716.88;5113203;28;20067;-31
2021/12/22 00:55:34;;;;;;;13.73;7.63;;;;;;;-1.42;100.00;102715.16;5114178;28;20043;-34
2021/12/22 00:58:03;;;;;;;13.82;8.13;;;;;;;-1.43;100.00;102714.31;5101514;28;20075;-35
2021/12/22 01:00:32;;;;;;;15.07;7.13;;;;;;;-1.44;100.00;102707.13;5107821;28;20480;-32
2021/12/22 01:03:00;;;;;;;16.23;8.50;;;;;;;-1.44;100.00;102717.22;5114246;28;20179;-34
2021/12/22 01:05:28;;;;;;;14.52;8.60;;;;;;;-1.43;100.00;102717.06;5112774;28;20082;-34
2021/12/22 01:07:56;;;;;;;14.07;7.32;;;;;;;-1.42;100.00;102717.91;5114077;28;20642;-34
2021/12/22 01:10:26;;;;;;;12.63;7.13;;;;;;;-1.43;100.00;102711.59;5113792;28;20055;-33
2021/12/22 01:12:57;;;;;;;9.98;5.90;;;;;;;-1.42;100.00;102718.78;5112454;28;20050;-31
2021/12/22 01:15:27;;;;;;;11.35;6.25;;;;;;;-1.43;100.00;102708.84;5113625;28;20138;-32
2021/12/22 01:18:01;;;;;;;15.43;8.30;;;;;;;-1.43;100.00;102716.19;5113819;28;20043;-41
2021/12/22 01:20:49;;;;;;;12.63;7.07;;;;;;;-1.45;100.00;102712.78;5112835;28;20047;-37
2021/12/22 01:23:19;;;;;;;13.25;8.65;;;;;;;-1.49;100.00;102715.00;5113890;28;20044;-35
2021/12/22 01:25:48;;;;;;;16.58;9.23;;;;;;;-1.50;100.00;102720.66;5113383;28;20046;-38
2021/12/22 01:28:22;;;;;;;12.75;7.53;;;;;;;-1.51;100.00;102711.59;5112884;28;20394;-30
2021/12/22 01:30:50;;;;;;;13.18;7.55;;;;;;;-1.51;100.00;102714.31;5113641;28;20054;-36
2021/12/22 01:33:18;;;;;;;14.63;8.65;;;;;;;-1.52;100.00;102703.53;5113297;28;20044;-31
2021/12/22 01:35:46;;;;;;;20.70;10.32;;;;;;;-1.54;100.00;102700.13;5112735;28;20055;-36
2021/12/22 01:38:15;;;;;;;18.35;9.73;;;;;;;-1.55;100.00;102706.63;5113388;28;20047;-29
2021/12/22 01:40:46;;;;;;;16.73;9.98;;;;;;;-1.56;100.00;102703.03;5112546;28;20047;-31
2021/12/22 01:43:16;;;;;;;16.60;9.68;;;;;;;-1.57;100.00;102705.94;5110057;28;20043;-36
2021/12/22 01:45:55;;;;;;;19.52;11.55;;;;;;;-1.57;100.00;102704.06;5113421;28;20040;-35
2021/12/22 01:51:32;;;;;;;19.35;10.55;;;;;;;-1.57;100.00;102711.41;5110335;28;20560;-33
2021/12/22 01:54:00;;;;;;;;;;;;;;;-1.59;100.00;102724.41;5113621;28;20435;-37
2021/12/22 01:56:32;;;;;;;17.83;10.35;;;;;;;-1.59;100.00;102724.41;5112299;28;19920;-29
2021/12/22 01:59:02;;;;;;;14.35;8.27;;;;;;;-1.57;100.00;102727.84;5113013;28;20097;-33
2021/12/22 02:01:33;;;;;;;15.70;9.73;;;;;;;-1.55;100.00;102732.13;5113017;28;20070;-33
2021/12/22 02:04:02;;;;;;;17.00;9.45;;;;;;;-1.54;100.00;102727.50;5112631;28;20043;-35
2021/12/22 02:06:31;;;;;;;20.48;10.40;;;;;;;-1.55;100.00;102728.53;5112851;28;20087;-40
2021/12/22 02:08:59;;;;;;;16.25;8.80;;;;;;;-1.55;100.00;102725.78;5111861;28;20524;-35
2021/12/22 02:11:27;;;;;;;18.15;10.18;;;;;;;-1.55;100.00;102725.78;5112781;28;20105;-32
2021/12/22 02:13:59;;;;;;;16.55;10.25;;;;;;;-1.56;100.00;102732.28;5112564;28;20411;-31
2021/12/22 02:16:31;;;;;;;21.58;11.55;;;;;;;-1.60;100.00;102726.31;5111756;28;20565;-33
2021/12/22 02:19:02;;;;;;;17.92;10.63;;;;;;;-1.61;100.00;102729.25;5108855;28;20040;-32
2021/12/22 02:21:37;;;;;;;17.80;10.55;;;;;;;-1.62;100.00;102731.13;5113077;28;20043;-29
2021/12/22 02:24:05;;;;;;;20.95;11.60;;;;;;;-1.61;100.00;102729.25;5111347;28;20131;-31
2021/12/22 02:26:35;;;;;;;23.35;11.90;;;;;;;-1.61;100.00;102726.50;5112718;28;20044;-31
2021/12/22 02:29:07;;;;;;;19.33;10.88;;;;;;;-1.62;100.00;102719.31;5112035;28;20036;-36
2021/12/22 02:31:41;;;;;;;19.83;10.77;;;;;;;-1.65;100.00;102719.66;5112089;28;20051;-38
2021/12/22 02:34:14;;;;;;;20.05;10.18;;;;;;;-1.67;100.00;102719.84;5112100;27;20504;-32
2021/12/22 02:36:44;;;;;;;20.50;10.85;;;;;;;-1.70;100.00;102716.56;5112775;28;20058;-34
2021/12/22 02:39:13;;;;;;;17.65;10.27;;;;;;;-1.70;100.00;102724.78;5111694;28;20056;-36
2021/12/22 02:41:41;;;;;;;18.00;10.35;;;;;;;-1.74;100.00;102722.41;5112515;28;20130;-34
2021/12/22 02:44:10;;;;;;;20.00;11.70;;;;;;;-1.77;100.00;102728.22;5111006;28;20047;-32
2021/12/22 02:46:40;;;;;;;20.35;11.63;;;;;;;-1.76;100.00;102729.06;5112549;28;20075;-34
2021/12/22 02:49:09;;;;;;;22.13;12.15;;;;;;;-1.77;100.00;102728.22;5101624;28;20048;-32
2021/12/22 02:51:38;;;;;;;20.42;11.70;;;;;;;-1.76;100.00;102721.72;5111501;28;20047;-32
2021/12/22 02:54:12;;;;;;;17.17;10.68;;;;;;;-1.75;100.00;102719.81;5111963;28;20408;-32
2021/12/22 02:56:54;;;;;;;16.65;10.63;;;;;;;-1.76;100.00;102724.44;5099543;28;20389;-34
2021/12/22 02:59:43;;;;;;;17.15;9.95;;;;;;;-1.78;100.00;102715.56;5110743;28;20489;-35
2021/12/22 03:02:19;;;;;;;15.57;10.35;;;;;;;-1.80;100.00;102722.25;5103748;28;20048;-31
2021/12/22 03:04:53;;;;;;;23.50;11.25;;;;;;;-1.81;100.00;102712.34;5111639;28;20035;-29
2021/12/22 03:07:24;;;;;;;18.85;11.25;;;;;;;-1.83;100.00;102707.03;5112309;28;20043;-33
2021/12/22 03:10:00;;;;;;;23.55;11.57;;;;;;;-1.83;100.00;102704.28;5111946;28;20040;-36
2021/12/22 03:12:32;;;;;;;18.52;10.85;;;;;;;-1.83;100.00;102696.09;5111063;28;20052;-33
2021/12/22 03:15:01;;;;;;;20.70;10.30;;;;;;;-1.82;100.00;102694.22;5111778;28;20074;-39
2021/12/22 03:17:28;;;;;;;20.60;11.23;;;;;;;-1.83;100.00;102692.50;5111959;28;20048;-32
2021/12/22 03:19:56;;;;;;;19.80;10.93;;;;;;;-1.84;100.00;102691.63;5110523;28;20146;-33
2021/12/22 03:22:24;;;;;;;21.48;10.88;;;;;;;-1.85;100.00;102687.19;5112114;28;20052;-30
2021/12/22 03:24:52;;;;;;;17.08;10.30;;;;;;;-1.87;100.00;102683.78;5111205;28;20278;-31
2021/12/22 03:27:23;;;;;;;20.13;11.73;;;;;;;-1.89;100.00;102680.34;5110832;28;20051;-31
2021/12/22 03:29:52;;;;;;;21.63;11.40;;;;;;;-1.89;100.00;102677.63;5111494;28;20476;-31
2021/12/22 03:32:20;;;;;;;24.13;11.20;;;;;;;-1.89;100.00;102687.69;5110776;28;20420;-32
2021/12/22 03:34:47;;;;;;;21.27;11.00;;;;;;;-1.89;100.00;102683.09;5110618;28;20047;-28
2021/12/22 03:37:15;;;;;;;21.00;11.57;;;;;;;-1.90;100.00;102678.63;5113860;28;20070;-37
2021/12/22 03:39:43;;;;;;;19.92;11.98;;;;;;;-1.88;100.00;102692.16;5115670;28;20047;-34
2021/12/22 03:42:12;;;;;;;26.80;13.20;;;;;;;-1.87;100.00;102702.91;5111502;28;20500;-40
2021/12/22 03:44:41;;;;;;;22.95;12.05;;;;;;;-1.85;100.00;102691.81;5115849;28;20070;-34
2021/12/22 03:47:10;;;;;;;22.42;11.60;;;;;;;-1.85;100.00;102687.19;5114844;28;20093;-33
2021/12/22 03:49:38;;;;;;;22.50;12.57;;;;;;;-1.84;100.00;102685.31;5115622;28;20484;-30
2021/12/22 03:52:07;;;;;;;22.85;12.75;;;;;;;-1.84;100.00;102682.56;5111682;28;20040;-33
2021/12/22 03:54:35;;;;;;;21.30;12.10;;;;;;;-1.84;100.00;102675.22;5114574;28;20046;-35
2021/12/22 03:57:03;;;;;;;16.63;10.45;;;;;;;-1.83;100.00;102673.34;5105037;28;20437;-37
2021/12/22 03:59:31;;;;;;;23.48;12.02;;;;;;;-1.85;100.00;102673.50;5115542;28;20052;-36
2021/12/22 04:02:00;;;;;;;18.10;11.55;;;;;;;-1.85;100.00;102669.91;5114616;28;20062;-35
2021/12/22 04:04:28;;;;;;;23.58;12.35;;;;;;;-1.84;100.00;102671.63;5115355;28;20044;-34
2021/12/22 04:06:56;;;;;;;23.13;11.75;;;;;;;-1.84;100.00;102668.91;5114833;27;20051;-30
2021/12/22 04:09:27;;;;;;;20.23;11.90;;;;;;;-1.85;100.00;102664.44;5114915;28;20412;-35
2021/12/22 04:11:55;;;;;;;20.42;11.00;;;;;;;-1.85;100.00;102667.19;5114856;28;20565;-35
2021/12/22 04:14:23;;;;;;;21.15;11.93;;;;;;;-1.87;100.00;102675.56;5115260;28;20058;-33
2021/12/22 04:16:51;;;;;;;23.15;12.43;;;;;;;-1.87;100.00;102675.56;5114118;28;20130;-32
2021/12/22 04:19:20;;;;;;;25.25;13.23;;;;;;;-1.86;100.00;102668.22;5114880;28;20134;-28
2021/12/22 04:21:49;;;;;;;23.25;12.10;;;;;;;-1.86;100.00;102665.47;5114793;28;20039;-35
2021/12/22 04:24:18;;;;;;;20.27;11.65;;;;;;;-1.83;100.00;102665.13;5113991;28;20441;-31
2021/12/22 04:26:45;;;;;;;21.08;12.00;;;;;;;-1.83;100.00;102657.78;5114718;27;20093;-33
2021/12/22 04:29:13;;;;;;;18.40;9.98;;;;;;;-1.82;100.00;102659.50;5113998;28;20506;-38
2021/12/22 04:31:41;;;;;;;17.55;9.50;;;;;;;-1.81;100.00;102654.88;5113900;28;20051;-39
2021/12/22 04:34:09;;;;;;;25.35;12.75;;;;;;;-1.81;100.00;102660.34;5114438;28;20485;-36
2021/12/22 04:36:40;;;;;;;22.02;11.45;;;;;;;-1.82;100.00;102653.16;5113938;28;20111;-39
2021/12/22 04:39:09;;;;;;;23.15;12.07;;;;;;;-1.82;100.00;102645.81;5111717;28;20446;-31
2021/12/22 04:41:37;;;;;;;22.33;12.00;;;;;;;-1.81;100.00;102654.88;5113760;28;20044;-37
2021/12/22 04:44:06;;;;;;;22.88;11.93;;;;;;;-1.82;100.00;102648.53;5113461;28;20035;-36
2021/12/22 04:46:34;;;;;;;23.00;12.65;;;;;;;-1.82;100.00;102647.69;5114107;28;20063;-36
2021/12/22 04:49:04;;;;;;;25.60;13.63;;;;;;;-1.82;100.00;102644.94;5114387;28;20074;-30
2021/12/22 04:51:33;;;;;;;25.55;13.52;;;;;;;-1.83;100.00;102635.88;5114063;28;20425;-33
2021/12/22 04:54:06;;;;;;;24.13;12.38;;;;;;;-1.82;100.00;102645.81;5112900;28;20552;-30
2021/12/22 04:56:35;;;;;;;21.83;13.20;;;;;;;-1.83;100.00;102633.16;5114384;28;20052;-32
2021/12/22 04:59:02;;;;;;;22.70;12.18;;;;;;;-1.85;100.00;102628.88;5113190;27;20056;-34
2021/12/22 05:01:30;;;;;;;20.02;11.93;;;;;;;-1.84;100.00;102633.31;5112932;27;20056;-30
2021/12/22 05:03:58;;;;;;;30.27;13.85;;;;;;;-1.85;100.00;102624.25;5112454;28;20067;-36
2021/12/22 05:06:26;;;;;;;19.90;11.07;;;;;;;-1.87;100.00;102629.06;5111990;28;20051;-37
2021/12/22 05:08:54;;;;;;;23.40;11.80;;;;;;;-1.85;100.00;102623.41;5113750;28;20051;-30
2021/12/22 05:11:23;;;;;;;18.13;10.85;;;;;;;-1.84;100.00;102628.72;5113781;28;20130;-34
2021/12/22 05:13:51;;;;;;;25.33;13.10;;;;;;;-1.86;100.00;102624.44;5113105;28;20132;-37
2021/12/22 05:16:19;;;;;;;24.13;12.35;;;;;;;-1.87;100.00;102623.59;5113999;27;20036;-37
2021/12/22 05:18:52;;;;;;;20.50;10.82;;;;;;;-1.86;100.00;102624.44;5112508;28;20048;-38
2021/12/22 05:21:21;;;;;;;21.80;11.07;;;;;;;-1.86;100.00;102624.44;5113679;28;20054;-35
2021/12/22 05:23:50;;;;;;;22.77;11.20;;;;;;;-1.87;100.00;102623.59;5113315;27;20122;-31
2021/12/22 05:26:19;;;;;;;26.15;13.38;;;;;;;-1.91;100.00;102622.22;5112955;28;20055;-37
2021/12/22 05:28:49;;;;;;;28.67;15.60;;;;;;;-1.91;100.00;102624.09;5113517;28;20051;-31
2021/12/22 05:31:17;;;;;;;22.77;12.43;;;;;;;-1.90;100.00;102631.28;5112604;28;20058;-39
2021/12/22 05:33:44;;;;;;;26.77;12.45;;;;;;;-1.90;100.00;102634.88;5112480;28;20070;-32
2021/12/22 05:36:12;;;;;;;25.25;13.27;;;;;;;-1.91;100.00;102633.16;5113294;27;20047;-37
2021/12/22 05:38:40;;;;;;;22.73;11.90;;;;;;;-1.90;100.00;102632.13;5113114;28;20047;-35
2021/12/22 05:41:08;;;;;;;24.10;12.95;;;;;;;-1.90;100.00;102634.00;5112452;28;20050;-36
2021/12/22 05:43:36;;;;;;;28.00;13.18;;;;;;;-1.92;100.00;102636.91;5113484;28;20150;-29
2021/12/22 05:46:05;;;;;;;24.27;12.55;;;;;;;-1.93;100.00;102635.22;5104033;28;20408;-37
2021/12/22 05:48:33;;;;;;;23.55;12.48;;;;;;;-1.93;100.00;102637.94;5112781;28;20055;-36
2021/12/22 05:51:01;;;;;;;24.02;12.32;;;;;;;-1.94;100.00;102636.25;5112894;28;20500;-38
2021/12/22 05:53:30;;;;;;;23.50;12.32;;;;;;;-1.95;100.00;102626.31;5113286;28;20062;-36
2021/12/22 05:55:58;;;;;;;24.25;11.73;;;;;;;-1.96;100.00;102624.59;5111775;28;20485;-34
2021/12/22 05:58:28;;;;;;;25.15;12.70;;;;;;;-1.96;100.00;102627.34;5112904;28;20054;-36
2021/12/22 06:00:56;;;;;;;26.88;13.45;;;;;;;-1.97;100.00;102619.31;5111543;28;20043;-33
2021/12/22 06:03:25;;;;;;;28.00;13.82;;;;;;;-1.95;100.00;102615.38;5112944;28;20404;-31
2021/12/22 06:05:53;;;;;;;26.85;13.27;;;;;;;-1.94;100.00;102617.09;5112502;28;20209;-32
2021/12/22 06:08:21;;;;;;;23.70;13.23;;;;;;;-1.94;100.00;102611.63;5112262;28;20139;-37
2021/12/22 06:10:48;;;;;;;25.60;13.23;;;;;;;-1.94;100.00;102611.63;5112166;28;20122;-35
2021/12/22 06:13:16;;;;;;;24.73;13.05;;;;;;;-1.92;100.00;102614.19;5113007;27;20043;-33
2021/12/22 06:15:44;;;;;;;25.73;12.77;;;;;;;-1.92;100.00;102604.09;5111630;28;20063;-34
2021/12/22 06:18:13;;;;;;;26.92;13.25;;;;;;;-1.89;100.00;102601.00;5112565;28;20050;-34
2021/12/22 06:20:42;;;;;;;27.08;13.70;;;;;;;-1.87;100.00;102598.97;5111842;28;20050;-33
2021/12/22 06:23:11;;;;;;;24.55;12.85;;;;;;;-1.87;100.00;102595.38;5108988;28;20043;-37
2021/12/22 06:25:39;;;;;;;25.27;12.38;;;;;;;-1.88;100.00;102591.78;5112538;28;20535;-31
2021/12/22 06:28:07;;;;;;;24.85;12.60;;;;;;;-1.88;100.00;102589.03;5112143;28;20043;-31
2021/12/22 06:30:35;;;;;;;23.98;12.70;;;;;;;-1.88;100.00;102591.78;5110925;28;20455;-34
2021/12/22 06:33:03;;;;;;;25.85;12.80;;;;;;;-1.89;100.00;102592.81;5112337;28;20100;-36
2021/12/22 06:35:31;;;;;;;24.63;12.02;;;;;;;-1.89;100.00;102587.34;5112349;28;20064;-30
2021/12/22 06:38:00;;;;;;;24.65;12.80;;;;;;;-1.88;100.00;102586.31;5111393;28;20480;-32
2021/12/22 06:40:28;;;;;;;25.40;13.48;;;;;;;-1.88;100.00;102585.44;5094242;28;20134;-33
2021/12/22 06:42:56;;;;;;;28.77;14.07;;;;;;;-1.88;100.00;102589.03;5112142;28;20123;-37
2021/12/22 06:45:24;;;;;;;27.95;13.60;;;;;;;-1.85;100.00;102576.91;5112264;28;20082;-31
2021/12/22 06:47:52;;;;;;;25.27;14.10;;;;;;;-1.82;100.00;102582.88;5111914;28;20063;-37
2021/12/22 06:50:20;;;;;;;29.05;14.25;;;;;;;-1.81;100.00;102581.00;5110837;28;20074;-34
2021/12/22 06:52:48;;;;;;;26.38;13.85;;;;;;;-1.79;100.00;102585.25;5099513;28;20055;-30
2021/12/22 06:55:17;;;;;;;23.30;12.18;;;;;;;-1.78;100.00;102583.34;5106210;28;20063;-33
2021/12/22 06:57:45;;;;;;;27.40;13.18;;;;;;;-1.79;100.00;102578.91;5110476;27;20047;-34
2021/12/22 07:00:14;;;;;;;26.83;13.77;;;;;;;-1.82;100.00;102577.41;5111590;28;20485;-39
2021/12/22 07:02:42;;;;;;;26.23;12.60;;;;;;;-1.81;100.00;102583.72;5111406;28;20097;-30
2021/12/22 07:05:19;;;;;;;26.77;13.50;;;;;;;-1.82;100.00;102579.28;5097068;28;20048;-36
2021/12/22 07:07:47;;;;;;;24.70;13.50;;;;;;;-1.82;100.00;102576.56;5104684;28;20841;-38
2021/12/22 07:10:17;;;;;;;24.42;12.85;;;;;;;-1.82;100.00;102582.03;5110413;28;20066;-34
2021/12/22 07:12:46;;;;;;;26.80;12.73;;;;;;;-1.82;100.00;102571.09;5108977;28;20060;-36
2021/12/22 07:15:16;;;;;;;24.98;12.40;;;;;;;-1.82;100.00;102573.81;5110736;28;20059;-36
2021/12/22 07:17:46;;;;;;;25.02;12.90;;;;;;;-1.84;100.00;102567.66;5110168;28;20151;-36
2021/12/22 07:20:15;;;;;;;24.38;12.73;;;;;;;-1.86;100.00;102565.09;5109853;28;20047;-33
2021/12/22 07:22:43;;;;;;;26.67;13.10;;;;;;;-1.87;100.00;102560.66;5110145;28;20136;-33
2021/12/22 07:25:14;;;;;;;24.40;14.25;;;;;;;-1.89;100.00;102570.91;5105344;28;20050;-33
2021/12/22 07:27:43;;;;;;;24.67;13.15;;;;;;;-1.89;100.00;102575.53;5110302;28;20050;-33
2021/12/22 07:30:12;;;;;;;24.40;13.15;;;;;;;-1.91;100.00;102566.66;5109593;28;20408;-34
2021/12/22 07:32:40;;;;;;;28.90;13.63;;;;;;;-1.90;100.00;102562.88;5108652;28;20349;-36
2021/12/22 07:35:11;;;;;;;26.63;13.68;;;;;;;-1.89;100.00;102562.72;5108919;28;20583;-36
2021/12/22 07:37:47;;;;;;;25.25;12.85;;;;;;;-1.88;100.00;102561.69;5109406;28;20048;-32
2021/12/22 07:40:17;;;;;;;29.75;14.25;;;;;;;-1.88;100.00;102564.41;5106449;28;20055;-35
2021/12/22 07:42:46;;;;;;;24.55;12.95;;;;;;;-1.86;100.00;102570.56;5108805;28;20571;-38
2021/12/22 07:45:14;;;;;;;24.67;13.82;;;;;;;-1.88;100.00;102572.63;5109366;28;20048;-37
2021/12/22 07:47:42;;;;;;;24.75;12.55;;;;;;;-1.87;100.00;102571.59;5091165;28;20074;-34
2021/12/22 07:50:10;;;;;;;22.75;11.77;;;;;;;-1.87;100.00;102568.88;5109434;28;20048;-38
2021/12/22 07:52:38;;;;;;;26.50;13.38;;;;;;;-1.89;100.00;102570.91;5109223;28;20050;-35
2021/12/22 07:55:06;;;;;;;24.48;14.18;;;;;;;-1.88;100.00;102561.69;5104284;28;20098;-33
2021/12/22 07:57:34;;;;;;;23.30;13.10;;;;;;;-1.88;100.00;102571.78;5108621;28;20055;-32
2021/12/22 08:00:04;;;;;;;23.00;12.40;;;;;;;-1.88;100.00;102560.84;5109621;28;20416;-36
2021/12/22 08:02:39;;;;;;;28.67;13.18;;;;;;;-1.89;100.00;102562.72;5108268;28;20458;-35
2021/12/22 08:05:09;;;;;;;26.95;13.93;;;;;;;-1.91;100.00;102562.03;5109671;28;20126;-38
2021/12/22 08:07:37;;;;;;;23.48;12.43;;;;;;;-1.89;100.00;102559.13;5109197;28;20113;-31
2021/12/22 08:10:07;;;;;;;25.52;12.77;;;;;;;-1.91;100.00;102562.03;5109241;28;20420;-32
2021/12/22 08:12:35;;;;;;;25.30;12.73;;;;;;;-1.92;100.00;102567.69;5109960;28;20062;-31
2021/12/22 08:15:05;;;;;;;25.65;13.15;;;;;;;-1.93;100.00;102579.66;5108767;28;20479;-40
2021/12/22 08:17:34;;;;;;;23.40;12.15;;;;;;;-1.94;100.00;102591.63;5109983;28;20079;-33
2021/12/22 08:20:04;;;;;;;22.17;12.23;;;;;;;-1.93;100.00;102585.97;5109397;28;20536;-35
2021/12/22 08:22:37;;;;;;;23.85;12.70;;;;;;;-1.93;100.00;102580.50;5099859;28;20528;-38
2021/12/22 08:25:06;;;;;;;25.33;12.63;;;;;;;-1.93;100.00;102574.16;5113123;28;20043;-36
2021/12/22 08:27:35;;;;;;;25.77;13.02;;;;;;;-1.92;100.00;102581.34;5111446;28;20048;-29
2021/12/22 08:30:07;;;;;;;23.98;12.48;;;;;;;-1.92;100.00;102576.72;5112419;28;20404;-31
2021/12/22 08:32:36;;;;;;;24.70;13.02;;;;;;;-1.91;100.00;102577.59;5110602;28;20420;-27
2021/12/22 08:35:07;;;;;;;24.13;11.82;;;;;;;-1.89;100.00;102572.81;5114517;28;20052;-31
2021/12/22 08:40:22;;;;;;;26.15;12.93;;;;;;;-1.90;100.00;102591.09;5114319;28;20452;-33
2021/12/22 08:42:51;;;;;;;25.20;13.60;;;;;;;-1.88;100.00;102588.19;5110272;28;20100;-34
2021/12/22 08:45:21;;;;;;;26.08;13.20;;;;;;;-1.85;100.00;102587.84;5114289;28;20139;-34
2021/12/22 08:47:49;;;;;;;19.73;11.48;;;;;;;-1.84;100.00;102582.19;5113067;28;20071;-36
2021/12/22 08:50:19;;;;;;;25.60;13.85;;;;;;;-1.81;100.00;102578.25;5113237;28;20048;-39
2021/12/22 08:52:47;;;;;;;26.13;13.77;;;;;;;-1.79;100.00;102584.38;5114081;28;20515;-28
2021/12/22 08:55:15;;;;;;;22.88;13.27;;;;;;;-1.76;100.00;102592.25;5113709;27;20086;-35
2021/12/22 08:57:43;;;;;;;25.88;12.80;;;;;;;-1.76;100.00;102593.09;5110527;28;20082;-34
2021/12/22 09:00:13;;;;;;;23.98;13.20;;;;;;;-1.72;100.00;102593.59;5113992;27;20054;-34
2021/12/22 09:02:44;;;;;;;28.70;13.45;;;;;;;-1.70;100.00;102585.22;5113399;28;20155;-34
2021/12/22 09:05:12;;;;;;;29.63;13.98;;;;;;;-1.68;100.00;102592.22;5113040;28;20040;-37
2021/12/22 09:07:40;;;;;;;25.30;13.48;;;;;;;-1.62;100.00;102593.41;5113580;28;20487;-38
2021/12/22 09:10:09;;;;;;;29.33;14.02;;;;;;;-1.60;100.00;102594.91;5112617;28;20047;-39
2021/12/22 09:12:37;;;;;;;23.08;13.15;;;;;;;-1.50;100.00;102603.78;5111729;28;20411;-36
2021/12/22 09:15:06;;;;;;;24.45;13.48;;;;;;;-1.45;100.00;102592.31;5113770;28;20073;-37
2021/12/22 09:17:34;;;;;;;22.52;12.90;;;;;;;-1.42;100.00;102592.81;5113493;28;20067;-37
2021/12/22 09:20:04;;;;;;;25.52;12.75;;;;;;;-1.35;100.00;102592.94;5112472;28;20047;-32
2021/12/22 09:22:32;;;;;;;23.80;12.88;;;;;;;-1.30;100.00;102592.41;5111829;28;20039;-34
2021/12/22 09:25:00;;;;;;;26.05;13.90;;;;;;;-1.24;100.00;102589.81;5112244;28;20047;-33
2021/12/22 09:27:27;;;;;;;23.50;12.55;;;;;;;-1.24;100.00;102598.03;5112760;28;20069;-36
2021/12/22 09:29:56;;;;;;;25.02;13.15;;;;;;;-1.20;100.00;102587.59;5113688;28;20052;-32
2021/12/22 09:32:24;;;;;;;23.75;12.68;;;;;;;-1.15;100.00;102586.00;5112627;28;20075;-33
2021/12/22 09:34:51;;;;;;;26.27;13.95;;;;;;;-1.05;100.00;102581.16;5112663;28;20220;-35
2021/12/22 09:37:21;;;;;;;23.65;12.50;;;;;;;-0.95;100.00;102580.06;5113125;28;20048;-33
2021/12/22 09:39:49;;;;;;;25.63;14.15;;;;;;;-0.87;100.00;102574.53;5112632;28;20063;-33
2021/12/22 09:42:17;;;;;;;24.83;14.18;;;;;;;-0.82;100.00;102581.19;5112431;27;20097;-37
2021/12/22 09:44:46;;;;;;;23.75;13.35;;;;;;;-0.79;100.00;102579.94;5113255;28;20054;-38
2021/12/22 09:47:23;;;;;;;24.38;13.15;;;;;;;-0.82;100.00;102580.34;5112414;28;20088;-33
2021/12/22 09:50:06;;;;;;;29.13;14.93;;;;;;;-0.90;100.00;102578.47;5112055;28;20484;-34
2021/12/22 09:52:37;;;;;;;25.38;14.25;;;;;;;-0.90;100.00;102577.63;5112998;28;20035;-31
2021/12/22 09:55:07;;;;;;;26.80;13.38;;;;;;;-0.86;100.00;102578.97;5111914;28;20053;-36
2021/12/22 09:57:35;;;;;;;25.02;12.52;;;;;;;-0.85;100.00;102570.59;5113260;28;20040;-36
2021/12/22 10:00:06;;;;;;;24.52;13.15;;;;;;;-0.86;100.00;102573.50;5112051;28;20047;-37
2021/12/22 10:02:41;;;;;;;27.02;14.30;;;;;;;-0.88;100.00;102570.09;5112817;28;20404;-37
2021/12/22 10:05:09;;;;;;;27.17;13.43;;;;;;;-0.88;100.00;102576.41;5112553;28;20063;-33
2021/12/22 10:07:41;;;;;;;26.20;14.18;;;;;;;-0.84;100.00;102572.28;5111967;28;20039;-32
2021/12/22 10:10:11;;;;;;;28.80;14.68;;;;;;;-0.81;100.00;102560.13;5109504;28;20499;-38
2021/12/22 10:12:39;;;;;;;22.95;12.73;;;;;;;-0.78;100.00;102551.50;5112915;28;20489;-32
2021/12/22 10:15:10;;;;;;;24.90;13.30;;;;;;;-0.72;100.00;102559.00;5111779;28;20043;-35
2021/12/22 10:17:40;;;;;;;24.90;14.60;;;;;;;-0.70;100.00;102546.81;5112193;28;20058;-39
2021/12/22 10:20:13;;;;;;;20.30;11.65;;;;;;;-0.65;100.00;102548.16;5112556;28;20039;-37
2021/12/22 10:22:44;;;;;;;22.73;13.45;;;;;;;-0.63;100.00;102546.94;5111735;28;20138;-34
2021/12/22 10:25:17;;;;;;;26.02;13.90;;;;;;;-0.64;100.00;102542.50;5109133;28;20079;-32
2021/12/22 10:27:47;;;;;;;24.90;14.05;;;;;;;-0.56;100.00;102541.56;5111753;28;20066;-39
2021/12/22 10:30:24;;;;;;;27.10;13.57;;;;;;;-0.44;100.00;102540.09;5111315;28;20051;-34
2021/12/22 10:33:05;;;;;;;27.70;15.20;;;;;;;-0.38;100.00;102542.94;5112621;27;20055;-36
2021/12/22 10:35:34;;;;;;;27.92;14.70;;;;;;;-0.33;100.00;102539.63;5108065;28;20055;-31
2021/12/22 10:38:03;;;;;;;26.60;13.32;;;;;;;-0.32;100.00;102543.22;5112369;28;20058;-32
2021/12/22 10:40:33;;;;;;;28.83;15.15;;;;;;;-0.27;100.00;102535.31;5111836;28;20083;-34
2021/12/22 10:43:02;;;;;;;25.55;15.27;;;;;;;-0.18;100.00;102534.16;5111499;28;20416;-35
2021/12/22 10:45:34;;;;;;;29.00;15.55;;;;;;;-0.10;100.00;102528.59;5111566;28;20385;-32
2021/12/22 10:50:57;;;;;;;28.70;15.15;;;;;;;0.04;100.00;102525.00;5111113;28;20044;-32
2021/12/22 10:53:27;;;;;;;28.98;15.52;;;;;;;0.13;100.00;102525.78;5112135;28;20400;-34
2021/12/22 10:55:57;;;;;;;28.02;14.77;;;;;;;0.16;100.00;102526.25;5098917;28;20040;-33
2021/12/22 10:58:27;;;;;;;26.88;14.88;;;;;;;0.17;100.00;102524.38;5106087;28;20055;-30
2021/12/22 11:01:19;;;;;;;27.63;15.13;;;;;;;0.11;100.00;102516.88;5111714;28;20126;-31
2021/12/22 11:03:52;;;;;;;27.58;15.00;;;;;;;0.09;100.00;102518.97;5096638;28;20067;-32
2021/12/22 11:06:23;;;;;;;;;;;;;;;0.10;100.00;102516.03;5112169;28;20051;-38
2021/12/22 11:08:55;;;;;;;24.52;13.77;;;;;;;0.16;100.00;102508.94;5112069;28;20015;-34
2021/12/22 11:11:23;;;;;;;;;;;;;;;0.13;100.00;102512.91;5111198;28;20040;-31
2021/12/22 11:14:19;;;;;;;27.02;13.45;;;;;;;0.12;100.00;102499.38;5111725;28;19927;-32
2021/12/22 11:16:53;;;;;;;27.58;15.57;;;;;;;0.15;100.00;102505.34;5062448;28;20452;-32
2021/12/22 11:19:22;;;;;;;26.52;14.38;;;;;;;0.19;100.00;102498.44;5110529;28;20059;-41
2021/12/22 11:22:02;;;;;;;21.63;12.85;;;;;;;0.25;100.00;102492.16;5109963;28;20378;-38
2021/12/22 11:24:33;;;;;;;28.55;15.40;;;;;;;0.33;100.00;102489.31;5110661;28;20052;-35